createdAt,value
2023-05-07T00:02:19.011Z,93703.34
2023-05-07T00:07:23.270Z,93703.53
2023-05-07T00:12:27.025Z,93692.25
2023-05-07T00:17:31.749Z,93680.94
2023-05-07T00:22:35.494Z,93674.00
2023-05-07T00:27:38.714Z,93684.59
2023-05-07T00:32:42.381Z,93674.81
2023-05-07T00:37:46.362Z,93669.75
2023-05-07T00:42:50.350Z,93679.91
2023-05-07T00:47:59.302Z,93662.63
2023-05-07T00:53:03.879Z,93688.88
2023-05-07T00:58:08.465Z,93690.50
2023-05-07T01:03:11.903Z,93690.50
2023-05-07T01:08:17.530Z,93683.78
2023-05-07T01:13:22.696Z,93687.19
2023-05-07T01:18:27.827Z,93682.81
2023-05-07T01:23:32.117Z,93693.63
2023-05-07T01:28:35.628Z,93697.41
2023-05-07T01:33:41.801Z,93693.06
2023-05-07T01:38:45.621Z,93681.66
2023-05-07T01:43:52.864Z,93681.22
2023-05-07T01:48:56.135Z,93667.38
2023-05-07T01:53:59.745Z,93674.34
2023-05-07T01:59:03.317Z,93676.63
2023-05-07T02:04:07.788Z,93653.63
2023-05-07T02:09:11.511Z,93659.00
2023-05-07T02:14:18.546Z,93659.72
2023-05-07T02:19:22.521Z,93646.41
2023-05-07T02:24:26.073Z,93645.53
2023-05-07T02:29:30.175Z,93656.88
2023-05-07T02:34:34.000Z,93654.13
2023-05-07T02:39:38.588Z,93655.22
2023-05-07T02:44:41.667Z,93639.13
2023-05-07T02:49:44.893Z,93663.81
2023-05-07T02:54:48.629Z,93663.97
2023-05-07T02:59:53.258Z,93654.91
2023-05-07T03:04:58.510Z,93666.19
2023-05-07T03:10:02.125Z,93669.22
2023-05-07T03:15:06.211Z,93665.66
2023-05-07T03:20:11.218Z,93663.69
2023-05-07T03:25:16.072Z,93665.97
2023-05-07T03:30:19.906Z,93667.91
2023-05-07T03:35:24.393Z,93664.38
2023-05-07T03:40:27.967Z,93667.09
2023-05-07T03:45:33.051Z,93670.59
2023-05-07T03:50:45.827Z,93686.22
2023-05-07T03:55:50.359Z,93683.47
2023-05-07T04:00:54.551Z,93676.66
2023-05-07T04:06:03.327Z,93691.94
2023-05-07T04:11:09.922Z,93689.28
2023-05-07T04:16:14.895Z,93700.72
2023-05-07T04:21:23.549Z,93691.47
2023-05-07T04:26:27.886Z,93700.28
2023-05-07T04:31:32.194Z,93706.75
2023-05-07T04:36:36.442Z,93719.50
2023-05-07T04:41:46.713Z,93717.00
2023-05-07T04:46:50.736Z,93717.19
2023-05-07T04:51:54.155Z,93712.22
2023-05-07T04:57:00.311Z,93713.53
2023-05-07T05:02:05.854Z,93724.94
2023-05-07T05:07:09.536Z,93719.88
2023-05-07T05:12:13.587Z,93713.19
2023-05-07T05:17:17.159Z,93735.50
2023-05-07T05:22:22.004Z,93731.91
2023-05-07T05:27:26.194Z,93726.84
2023-05-07T05:32:29.878Z,93724.97
2023-05-07T05:37:34.315Z,93723.69
2023-05-07T05:42:40.925Z,93724.34
2023-05-07T05:47:46.794Z,93707.84
2023-05-07T05:52:51.702Z,93728.69
2023-05-07T05:57:57.204Z,93718.13
2023-05-07T06:03:01.977Z,93722.16
2023-05-07T06:08:06.641Z,93725.16
2023-05-07T06:13:11.946Z,93737.47
2023-05-07T06:18:16.055Z,93733.69
2023-05-07T06:23:20.040Z,93723.69
2023-05-07T06:28:23.521Z,93727.78
2023-05-07T06:33:28.005Z,93730.22
2023-05-07T06:38:31.724Z,93725.44
2023-05-07T06:43:35.758Z,93726.94
2023-05-07T06:48:58.152Z,93720.56
2023-05-07T06:54:05.656Z,93738.72
2023-05-07T06:59:11.036Z,93732.69
2023-05-07T07:04:17.828Z,93739.97
2023-05-07T07:09:26.149Z,93754.84
2023-05-07T07:14:30.907Z,93764.00
2023-05-07T07:19:34.704Z,93767.59
2023-05-07T07:24:40.195Z,93783.53
2023-05-07T07:29:47.600Z,93787.78
2023-05-07T07:34:51.629Z,93786.59
2023-05-07T07:39:55.391Z,93786.22
2023-05-07T07:44:59.553Z,93791.78
2023-05-07T07:50:07.614Z,93808.06
2023-05-07T07:55:11.718Z,93810.69
2023-05-07T08:00:18.043Z,93812.38
2023-05-07T08:05:21.729Z,93821.69
2023-05-07T08:10:27.310Z,93819.91
2023-05-07T08:15:37.613Z,93831.06
2023-05-07T08:20:42.726Z,93826.13
2023-05-07T08:25:52.754Z,93835.75
2023-05-07T08:31:02.361Z,93827.34
2023-05-07T08:36:10.269Z,93830.31
2023-05-07T08:41:14.912Z,93831.53
2023-05-07T08:46:22.753Z,93843.16
2023-05-07T08:51:32.663Z,93837.16
2023-05-07T08:56:37.028Z,93834.88
2023-05-07T09:01:42.079Z,93827.56
2023-05-07T09:06:46.647Z,93832.53
2023-05-07T09:12:00.933Z,93827.34
2023-05-07T09:17:06.979Z,93823.47
2023-05-07T09:22:11.374Z,93813.59
2023-05-07T09:27:27.210Z,93813.00
2023-05-07T09:32:41.523Z,93814.16
2023-05-07T09:37:51.960Z,93811.25
2023-05-07T09:42:56.389Z,93814.66
2023-05-07T09:48:04.394Z,93815.41
2023-05-07T09:53:11.385Z,93798.47
2023-05-07T09:58:18.930Z,93808.19
2023-05-07T10:03:25.450Z,93805.69
2023-05-07T10:08:37.025Z,93800.94
2023-05-07T10:13:43.263Z,93784.72
2023-05-07T10:18:49.694Z,93780.84
2023-05-07T10:24:15.389Z,93779.09
2023-05-07T10:29:34.425Z,93782.56
2023-05-07T10:34:43.561Z,93802.16
2023-05-07T10:39:48.149Z,93799.75
2023-05-07T10:44:52.444Z,93800.69
2023-05-07T10:50:08.956Z,93812.47
2023-05-07T10:55:18.772Z,93826.06
2023-05-07T11:00:44.005Z,93816.53
2023-05-07T11:06:14.960Z,93830.53
2023-05-07T11:11:49.080Z,93838.81
2023-05-07T11:17:09.295Z,93826.91
2023-05-07T11:22:37.004Z,93835.44
2023-05-07T11:27:52.392Z,93829.06
2023-05-07T11:32:56.636Z,93837.78
2023-05-07T11:38:02.302Z,93833.34
2023-05-07T11:43:13.443Z,93840.53
2023-05-07T11:48:18.045Z,93838.22
2023-05-07T11:53:26.422Z,93840.75
2023-05-07T11:58:31.143Z,93824.09
2023-05-07T12:03:36.449Z,93805.59
2023-05-07T12:08:43.666Z,93814.63
2023-05-07T12:13:48.659Z,93808.66
2023-05-07T12:18:54.031Z,93804.13
2023-05-07T12:23:59.299Z,93809.59
2023-05-07T12:29:04.394Z,93801.09
2023-05-07T12:34:07.543Z,93775.03
2023-05-07T12:39:12.499Z,93801.53
2023-05-07T12:44:16.944Z,93786.81
2023-05-07T12:49:20.837Z,93788.47
2023-05-07T12:54:39.012Z,93795.84
2023-05-07T12:59:43.769Z,93795.44
2023-05-07T13:04:49.475Z,93779.28
2023-05-07T13:09:53.953Z,93788.75
2023-05-07T13:14:58.521Z,93775.84
2023-05-07T13:20:01.688Z,93774.22
2023-05-07T13:25:07.185Z,93774.06
2023-05-07T13:30:11.377Z,93769.22
2023-05-07T13:35:15.127Z,93765.47
2023-05-07T13:40:19.518Z,93768.56
2023-05-07T13:45:27.094Z,93760.38
2023-05-07T13:50:31.296Z,93767.69
2023-05-07T13:55:34.547Z,93769.13
2023-05-07T14:00:37.892Z,93766.44
2023-05-07T14:05:41.931Z,93765.00
2023-05-07T14:10:45.693Z,93754.78
2023-05-07T14:15:50.317Z,93748.44
2023-05-07T14:20:54.268Z,93742.28
2023-05-07T14:25:58.461Z,93753.75
2023-05-07T14:31:02.789Z,93743.63
2023-05-07T14:36:07.185Z,93740.69
2023-05-07T14:41:10.925Z,93712.97
2023-05-07T14:46:14.638Z,93739.38
2023-05-07T14:51:18.591Z,93750.19
2023-05-07T14:56:23.416Z,93746.94
2023-05-07T15:01:28.117Z,93746.25
2023-05-07T15:06:32.708Z,93755.97
2023-05-07T15:11:36.745Z,93761.00
2023-05-07T15:16:41.865Z,93748.97
2023-05-07T15:21:46.089Z,93741.09
2023-05-07T15:26:49.964Z,93760.31
2023-05-07T15:31:53.655Z,93767.38
2023-05-07T15:36:58.399Z,93768.84
2023-05-07T15:42:02.568Z,93753.91
2023-05-07T15:47:08.203Z,93765.44
2023-05-07T15:52:14.969Z,93770.06
2023-05-07T15:57:20.265Z,93769.41
2023-05-07T16:02:26.297Z,93755.13
2023-05-07T16:07:30.590Z,93768.50
2023-05-07T16:12:34.850Z,93766.44
2023-05-07T16:17:39.112Z,93759.59
2023-05-07T16:22:43.362Z,93763.16
2023-05-07T16:27:48.059Z,93770.81
2023-05-07T16:32:52.743Z,93757.91
2023-05-07T16:37:56.873Z,93754.53
2023-05-07T16:43:01.047Z,93752.56
2023-05-07T16:48:05.900Z,93765.09
2023-05-07T16:53:10.071Z,93750.22
2023-05-07T16:58:13.698Z,93761.91
2023-05-07T17:03:17.720Z,93760.59
2023-05-07T17:08:21.295Z,93763.56
2023-05-07T17:13:25.603Z,93763.72
2023-05-07T17:18:31.027Z,93768.03
2023-05-07T17:23:34.863Z,93782.22
2023-05-07T17:28:38.574Z,93777.78
2023-05-07T17:33:42.606Z,93776.22
2023-05-07T17:38:46.032Z,93783.34
2023-05-07T17:43:49.746Z,93782.31
2023-05-07T17:48:53.032Z,93787.84
2023-05-07T17:53:57.130Z,93794.75
2023-05-07T17:59:00.759Z,93789.19
2023-05-07T18:04:05.332Z,93794.94
2023-05-07T18:09:09.323Z,93805.16
2023-05-07T18:14:13.602Z,93800.94
2023-05-07T18:19:17.267Z,93788.97
2023-05-07T18:24:20.519Z,93808.44
2023-05-07T18:29:24.760Z,93825.16
2023-05-07T18:34:28.601Z,93823.66
2023-05-07T18:39:32.724Z,93821.38
2023-05-07T18:44:38.668Z,93837.09
2023-05-07T18:49:42.486Z,93831.38
2023-05-07T18:54:46.152Z,93837.75
2023-05-07T18:59:49.964Z,93831.50
2023-05-07T19:04:53.537Z,93842.22
2023-05-07T19:10:04.765Z,93840.78
2023-05-07T19:15:10.466Z,93829.00
2023-05-07T19:20:14.211Z,93838.78
2023-05-07T19:25:18.501Z,93844.28
2023-05-07T19:30:22.189Z,93852.22
2023-05-07T19:35:25.810Z,93858.50
2023-05-07T19:40:29.869Z,93859.69
2023-05-07T19:45:33.404Z,93842.75
2023-05-07T19:50:37.807Z,93845.44
2023-05-07T19:55:41.747Z,93856.38
2023-05-07T20:00:45.951Z,93851.25
2023-05-07T20:05:51.029Z,93849.34
2023-05-07T20:10:56.069Z,93845.13
2023-05-07T20:16:01.583Z,93837.69
2023-05-07T20:21:05.815Z,93854.53
2023-05-07T20:26:09.522Z,93858.94
2023-05-07T20:31:13.126Z,93864.63
2023-05-07T20:36:17.132Z,93876.25
2023-05-07T20:41:27.450Z,93868.50
2023-05-07T20:46:33.253Z,93862.69
2023-05-07T20:51:37.277Z,93859.97
2023-05-07T20:56:41.611Z,93864.72
2023-05-07T21:01:45.270Z,93864.72
2023-05-07T21:06:49.099Z,93867.53
2023-05-07T21:11:53.355Z,93860.88
2023-05-07T21:16:57.172Z,93856.59
2023-05-07T21:22:01.316Z,93849.56
2023-05-07T21:27:04.905Z,93871.16
2023-05-07T21:32:08.722Z,93868.03
2023-05-07T21:37:12.105Z,93871.56
2023-05-07T21:42:15.236Z,93871.50
2023-05-07T21:47:19.377Z,93877.34
2023-05-07T21:52:26.444Z,93884.44
2023-05-07T21:57:30.262Z,93877.75
2023-05-07T22:02:34.299Z,93866.41
2023-05-07T22:07:38.194Z,93867.97
2023-05-07T22:12:42.123Z,93863.66
2023-05-07T22:17:46.135Z,93849.09
2023-05-07T22:22:52.742Z,93854.56
2023-05-07T22:27:56.149Z,93857.22
2023-05-07T22:32:59.574Z,93857.53
2023-05-07T22:38:03.268Z,93857.53
2023-05-07T22:43:07.217Z,93838.28
2023-05-07T22:48:11.671Z,93839.81
2023-05-07T22:53:15.759Z,93839.31
2023-05-07T22:58:19.303Z,93828.34
2023-05-07T23:03:23.682Z,93844.06
2023-05-07T23:08:27.970Z,93829.91
2023-05-07T23:13:32.208Z,93836.88
2023-05-07T23:18:36.669Z,93841.81
2023-05-07T23:23:39.828Z,93830.59
2023-05-07T23:28:42.969Z,93823.75
2023-05-07T23:33:46.018Z,93819.38
2023-05-07T23:38:49.675Z,93822.94
2023-05-07T23:43:54.015Z,93807.31
2023-05-07T23:48:57.095Z,93798.78
2023-05-07T23:54:03.245Z,93798.91
2023-05-07T23:59:07.131Z,93787.25
